Time;durP1;ratioP1;P1;durP2;ratioP2;P2;SDS_P1;SDS_P2;PMS_P1;PMS_P2;Temp;Humidity;BMP_temperature;BMP_pressure;BME280_temperature;BME280_humidity;BME280_pressure;Samples;Min_cycle;Max_cycle;Signal;HPM_P1;HPM_P2
2022/10/26 00:00:42;;;;;;;1.50;1.00;;;15.20;99.90;;;;;;5037194;28;20221;-72
2022/10/26 00:03:07;;;;;;;1.77;1.10;;;15.20;99.90;;;;;;5037133;28;20235;-72
2022/10/26 00:05:35;;;;;;;1.45;1.08;;;15.20;99.90;;;;;;5037547;28;20182;-72
2022/10/26 00:08:04;;;;;;;1.83;1.13;;;15.20;99.90;;;;;;5037496;28;20182;-72
2022/10/26 00:10:30;;;;;;;1.20;1.00;;;15.30;99.90;;;;;;5034045;28;20183;-72
2022/10/26 00:12:55;;;;;;;2.55;1.00;;;15.30;99.90;;;;;;5037822;28;20190;-72
2022/10/26 00:15:25;;;;;;;2.50;0.98;;;15.30;99.90;;;;;;5036928;28;20189;-72
2022/10/26 00:17:54;;;;;;;1.58;0.88;;;15.30;99.90;;;;;;5037562;28;20178;-72
2022/10/26 00:20:19;;;;;;;2.05;0.93;;;15.30;99.90;;;;;;5053957;28;20225;-72
2022/10/26 00:22:47;;;;;;;3.50;1.10;;;15.30;99.90;;;;;;5037264;28;20256;-73
2022/10/26 00:25:13;;;;;;;2.00;0.85;;;15.30;99.90;;;;;;5036451;28;20194;-71
2022/10/26 00:27:39;;;;;;;1.83;1.05;;;15.30;99.90;;;;;;5036462;28;20212;-72
2022/10/26 00:30:05;;;;;;;4.47;1.25;;;15.40;99.90;;;;;;5036952;28;20178;-72
2022/10/26 00:32:34;;;;;;;2.13;1.00;;;15.30;99.90;;;;;;5036384;28;20247;-72
2022/10/26 00:35:00;;;;;;;3.17;1.02;;;15.30;99.90;;;;;;5033435;28;20186;-72
2022/10/26 00:37:27;;;;;;;3.50;1.10;;;15.30;99.90;;;;;;5036310;28;20213;-71
2022/10/26 00:39:53;;;;;;;2.70;1.35;;;15.30;99.90;;;;;;5036351;28;20194;-71
2022/10/26 00:42:21;;;;;;;1.75;0.82;;;15.30;99.90;;;;;;5053325;28;20273;-71
2022/10/26 00:45:03;;;;;;;2.33;1.48;;;15.30;99.90;;;;;;5036942;28;20170;-71
2022/10/26 00:47:31;;;;;;;1.73;1.00;;;15.30;99.90;;;;;;5044737;28;20219;-72
2022/10/26 00:50:03;;;;;;;2.65;1.00;;;15.30;99.90;;;;;;5030352;28;20202;-71
2022/10/26 00:52:29;;;;;;;2.05;1.05;;;15.40;99.90;;;;;;5036776;28;20180;-72
2022/10/26 00:54:57;;;;;;;3.25;0.90;;;15.40;99.90;;;;;;5036079;28;20208;-72
2022/10/26 00:57:23;;;;;;;3.22;1.10;;;15.40;99.90;;;;;;5030341;28;20197;-71
2022/10/26 00:59:51;;;;;;;2.08;1.10;;;15.40;99.90;;;;;;5033767;28;20181;-71
2022/10/26 01:02:19;;;;;;;2.05;1.00;;;15.40;99.90;;;;;;5036037;28;20174;-71
2022/10/26 01:04:46;;;;;;;1.67;1.05;;;15.50;99.90;;;;;;5052837;28;20189;-72
2022/10/26 01:07:13;;;;;;;2.10;1.05;;;15.50;99.90;;;;;;5036579;28;20311;-72
2022/10/26 01:09:43;;;;;;;1.98;0.98;;;15.50;99.90;;;;;;5035887;28;20186;-72
2022/10/26 01:12:11;;;;;;;2.80;1.08;;;15.50;99.90;;;;;;5033026;28;20192;-71
2022/10/26 01:14:37;;;;;;;2.95;0.88;;;15.50;99.90;;;;;;5036084;28;20181;-72
2022/10/26 01:17:11;;;;;;;2.67;1.10;;;15.50;99.90;;;;;;5036495;28;20205;-72
2022/10/26 01:19:37;;;;;;;2.78;1.00;;;15.50;99.90;;;;;;5034427;28;20190;-72
2022/10/26 01:22:13;;;;;;;1.30;0.90;;;15.60;99.90;;;;;;5036163;28;20194;-72
2022/10/26 01:24:59;;;;;;;2.72;0.80;;;15.60;99.90;;;;;;5036217;28;20177;-72
2022/10/26 01:27:35;;;;;;;2.42;1.17;;;15.60;99.90;;;;;;5042554;28;20200;-72
2022/10/26 01:30:16;;;;;;;1.83;1.10;;;15.60;99.90;;;;;;5036645;28;20186;-72
2022/10/26 01:33:05;;;;;;;1.98;1.00;;;15.60;99.90;;;;;;5046737;28;20182;-72
2022/10/26 01:35:54;;;;;;;3.53;0.90;;;15.60;99.90;;;;;;5040935;28;20205;-72
2022/10/26 01:38:43;;;;;;;1.67;1.00;;;15.60;99.90;;;;;;5053332;28;20177;-72
2022/10/26 01:41:19;;;;;;;1.58;1.00;;;15.60;99.90;;;;;;5025435;28;20233;-72
2022/10/26 01:43:55;;;;;;;3.63;1.10;;;15.60;99.90;;;;;;5052754;28;20284;-76
2022/10/26 01:46:24;;;;;;;2.85;1.27;;;15.60;99.90;;;;;;5024779;28;20209;-77
2022/10/26 01:48:56;;;;;;;1.80;1.00;;;15.60;99.90;;;;;;5030728;28;20206;-75
2022/10/26 01:51:25;;;;;;;1.52;0.90;;;15.60;99.90;;;;;;5029011;28;20174;-75
2022/10/26 01:53:51;;;;;;;2.08;1.00;;;15.60;99.90;;;;;;5037553;28;20198;-75
2022/10/26 01:56:24;;;;;;;2.30;0.98;;;15.60;99.90;;;;;;5035174;28;20285;-76
2022/10/26 01:59:06;;;;;;;1.48;0.88;;;15.60;99.90;;;;;;5034884;28;20189;-76
2022/10/26 02:01:43;;;;;;;1.20;0.82;;;15.60;99.90;;;;;;5026993;28;20166;-75
2022/10/26 02:04:08;;;;;;;3.17;1.02;;;15.60;99.90;;;;;;5028212;28;20245;-76
2022/10/26 02:06:40;;;;;;;2.95;1.20;;;15.70;99.90;;;;;;5041600;28;20182;-76
2022/10/26 02:09:55;;;;;;;1.75;0.75;;;15.70;99.90;;;;;;5023939;28;20213;-75
2022/10/26 02:12:30;;;;;;;3.35;0.98;;;15.70;99.90;;;;;;5028499;28;20210;-76
2022/10/26 02:15:29;;;;;;;1.92;0.90;;;15.70;99.90;;;;;;5030038;28;20197;-76
2022/10/26 02:18:12;;;;;;;1.77;0.80;;;15.80;99.90;;;;;;5034726;28;20273;-76
2022/10/26 02:20:47;;;;;;;2.58;1.08;;;15.80;99.90;;;;;;5028642;28;20220;-76
2022/10/26 02:23:17;;;;;;;1.70;0.85;;;15.80;99.90;;;;;;5034705;28;20193;-75
2022/10/26 02:25:47;;;;;;;2.75;0.93;;;15.80;99.90;;;;;;5046240;28;20273;-76
2022/10/26 02:28:20;;;;;;;1.98;0.98;;;15.80;99.90;;;;;;5033214;28;20221;-77
2022/10/26 02:30:49;;;;;;;2.50;1.00;;;15.90;99.90;;;;;;5050771;28;20178;-74
2022/10/26 02:33:16;;;;;;;2.60;0.90;;;15.80;99.90;;;;;;5043138;28;20178;-76
2022/10/26 02:35:49;;;;;;;2.65;0.90;;;15.90;99.90;;;;;;5026813;28;20198;-75
2022/10/26 02:38:18;;;;;;;1.42;0.90;;;15.90;99.90;;;;;;5041578;28;20440;-75
2022/10/26 02:40:46;;;;;;;1.63;0.90;;;15.90;99.90;;;;;;5034088;28;20186;-75
2022/10/26 02:43:20;;;;;;;3.08;1.00;;;15.90;99.90;;;;;;5034288;28;20174;-75
2022/10/26 02:45:53;;;;;;;1.95;1.13;;;15.90;99.90;;;;;;5031187;28;20189;-76
2022/10/26 02:48:22;;;;;;;2.60;1.00;;;16.00;99.90;;;;;;5026475;28;20198;-76
2022/10/26 02:51:16;;;;;;;2.90;0.90;;;15.90;99.90;;;;;;5034681;28;20176;-77
2022/10/26 02:53:48;;;;;;;1.85;1.10;;;16.00;99.90;;;;;;5018431;28;20181;-76
2022/10/26 02:56:23;;;;;;;2.58;1.05;;;16.00;99.90;;;;;;5031937;28;20210;-77
2022/10/26 02:58:56;;;;;;;1.60;0.88;;;16.00;99.90;;;;;;5022130;28;20170;-79
2022/10/26 03:01:26;;;;;;;2.83;1.00;;;16.00;99.90;;;;;;5033068;28;20181;-77
2022/10/26 03:03:56;;;;;;;2.15;0.98;;;16.00;99.90;;;;;;5033640;28;20223;-77
2022/10/26 03:06:23;;;;;;;2.67;1.10;;;16.00;99.90;;;;;;5030847;28;20202;-77
2022/10/26 03:08:51;;;;;;;2.70;0.90;;;16.00;99.90;;;;;;5034219;28;20256;-76
2022/10/26 03:11:17;;;;;;;2.70;1.00;;;16.00;99.90;;;;;;5032511;28;20174;-78
2022/10/26 03:13:42;;;;;;;3.63;0.95;;;16.00;99.90;;;;;;5034111;28;20189;-78
2022/10/26 03:16:10;;;;;;;3.33;0.90;;;16.00;99.90;;;;;;5024890;28;20190;-78
2022/10/26 03:18:41;;;;;;;2.65;1.05;;;16.00;99.90;;;;;;5028781;28;20177;-78
2022/10/26 03:21:09;;;;;;;2.17;0.95;;;16.00;99.90;;;;;;5025991;28;20290;-77
2022/10/26 03:23:35;;;;;;;2.13;1.00;;;16.00;99.90;;;;;;5034104;28;20227;-77
2022/10/26 03:26:05;;;;;;;2.28;0.88;;;16.00;99.90;;;;;;5033677;28;20185;-75
2022/10/26 03:28:33;;;;;;;1.75;0.90;;;16.00;99.90;;;;;;5026520;28;20240;-76
2022/10/26 03:30:59;;;;;;;2.13;1.20;;;16.00;99.90;;;;;;5030452;28;20193;-77
2022/10/26 03:33:24;;;;;;;2.97;1.50;;;16.00;99.90;;;;;;5030911;28;20233;-75
2022/10/26 03:35:55;;;;;;;2.17;1.10;;;16.00;99.90;;;;;;5033969;28;20255;-78
2022/10/26 03:38:23;;;;;;;1.50;1.00;;;16.00;99.90;;;;;;5034545;28;20186;-76
2022/10/26 03:40:49;;;;;;;1.70;1.00;;;16.00;99.90;;;;;;5033863;28;20178;-77
2022/10/26 03:43:18;;;;;;;4.13;1.10;;;16.00;99.90;;;;;;5033954;28;20188;-76
2022/10/26 03:45:43;;;;;;;1.65;1.00;;;16.00;99.90;;;;;;5039343;28;20198;-77
2022/10/26 03:48:12;;;;;;;2.08;0.98;;;16.00;99.90;;;;;;5028953;28;20170;-77
2022/10/26 03:50:37;;;;;;;4.03;1.20;;;16.00;99.90;;;;;;5036672;28;20185;-77
2022/10/26 03:53:03;;;;;;;2.10;1.10;;;15.90;99.90;;;;;;5028322;28;20170;-76
2022/10/26 03:55:28;;;;;;;2.85;0.90;;;16.00;99.90;;;;;;5032201;28;20189;-76
2022/10/26 03:57:54;;;;;;;2.42;0.98;;;15.90;99.90;;;;;;5032815;28;20367;-75
2022/10/26 04:00:20;;;;;;;4.15;1.17;;;15.90;99.90;;;;;;5031597;28;20175;-76
2022/10/26 04:02:56;;;;;;;2.20;1.20;;;15.90;99.90;;;;;;5032459;28;20214;-77
2022/10/26 04:05:25;;;;;;;1.67;0.80;;;15.90;99.90;;;;;;5032224;28;20184;-77
2022/10/26 04:07:55;;;;;;;3.17;1.00;;;15.90;99.90;;;;;;5039680;28;20190;-76
2022/10/26 04:10:25;;;;;;;4.18;1.27;;;15.90;99.90;;;;;;5040697;28;20206;-77
2022/10/26 04:12:51;;;;;;;5.85;1.10;;;15.80;99.90;;;;;;5033946;28;20178;-77
2022/10/26 04:15:18;;;;;;;2.38;1.10;;;15.90;99.90;;;;;;5037835;28;20173;-76
2022/10/26 04:17:46;;;;;;;2.80;1.27;;;15.90;99.90;;;;;;5036923;28;20206;-78
2022/10/26 04:20:14;;;;;;;1.92;1.02;;;15.90;99.90;;;;;;5036721;28;20265;-77
2022/10/26 04:22:44;;;;;;;3.67;1.08;;;15.90;99.90;;;;;;5030467;28;20178;-77
2022/10/26 04:25:11;;;;;;;1.88;1.15;;;15.90;99.90;;;;;;5032849;28;20217;-77
2022/10/26 04:27:36;;;;;;;3.67;2.30;;;15.90;99.90;;;;;;5032897;28;20191;-78
2022/10/26 04:30:04;;;;;;;2.35;1.42;;;15.90;99.90;;;;;;5032034;28;20178;-77
2022/10/26 04:32:29;;;;;;;1.95;1.40;;;15.90;99.90;;;;;;5033421;28;20221;-76
2022/10/26 04:34:55;;;;;;;1.73;1.23;;;15.80;99.90;;;;;;5045140;28;20173;-77
2022/10/26 04:37:23;;;;;;;3.60;1.10;;;15.80;99.90;;;;;;5033783;28;20290;-76
2022/10/26 04:39:53;;;;;;;2.92;1.13;;;15.80;99.90;;;;;;5037552;28;20192;-76
2022/10/26 04:42:21;;;;;;;2.15;1.10;;;15.80;99.90;;;;;;5036695;28;20170;-77
2022/10/26 04:44:46;;;;;;;4.00;2.13;;;15.80;99.90;;;;;;5067388;28;20202;-78
2022/10/26 04:47:14;;;;;;;2.10;1.40;;;15.80;99.90;;;;;;5041973;28;20202;-76
2022/10/26 04:49:40;;;;;;;2.63;1.17;;;15.90;99.90;;;;;;5033081;28;20185;-77
2022/10/26 04:52:06;;;;;;;2.00;1.17;;;15.80;99.90;;;;;;5051692;28;20204;-77
2022/10/26 04:54:31;;;;;;;2.08;1.30;;;15.80;99.90;;;;;;5036519;28;20213;-77
2022/10/26 04:56:57;;;;;;;2.33;1.25;;;15.80;99.90;;;;;;5029222;28;20194;-75
2022/10/26 04:59:29;;;;;;;1.98;1.10;;;15.80;99.90;;;;;;5041754;28;20203;-76
2022/10/26 05:01:57;;;;;;;3.58;0.90;;;15.80;99.90;;;;;;5029415;28;20211;-77
2022/10/26 05:04:22;;;;;;;2.97;1.20;;;15.80;99.90;;;;;;5035831;28;20193;-77
2022/10/26 05:06:52;;;;;;;2.15;1.15;;;15.80;99.90;;;;;;5033113;28;20174;-77
2022/10/26 05:09:17;;;;;;;1.38;1.00;;;15.70;99.90;;;;;;5036400;28;20277;-77
2022/10/26 05:11:45;;;;;;;2.53;1.02;;;15.70;99.90;;;;;;5035183;28;20247;-77
2022/10/26 05:14:11;;;;;;;2.47;1.25;;;15.70;99.90;;;;;;5034651;28;20178;-78
2022/10/26 05:16:37;;;;;;;7.63;1.70;;;15.70;99.90;;;;;;5035546;28;20214;-78
2022/10/26 05:19:05;;;;;;;3.03;1.58;;;15.70;99.90;;;;;;5034488;28;20171;-80
2022/10/26 05:21:31;;;;;;;3.50;1.20;;;15.70;99.90;;;;;;5035773;28;20198;-78
2022/10/26 05:23:57;;;;;;;2.30;1.20;;;15.70;99.90;;;;;;5052431;28;20273;-79
2022/10/26 05:26:27;;;;;;;2.10;1.20;;;15.70;99.90;;;;;;5049632;28;20763;-78
2022/10/26 05:28:55;;;;;;;3.83;1.20;;;15.70;99.90;;;;;;5031671;28;20183;-79
2022/10/26 05:31:21;;;;;;;1.73;1.15;;;15.70;99.90;;;;;;5034170;28;20186;-79
2022/10/26 05:33:50;;;;;;;2.50;1.33;;;15.70;99.90;;;;;;5035104;28;20178;-77
2022/10/26 05:36:18;;;;;;;2.33;1.30;;;15.70;99.90;;;;;;5050769;28;20202;-76
2022/10/26 05:38:47;;;;;;;1.58;1.00;;;15.70;99.90;;;;;;5027638;28;20240;-78
2022/10/26 05:41:12;;;;;;;1.80;1.13;;;15.70;99.90;;;;;;5034689;28;20181;-78
2022/10/26 05:43:38;;;;;;;2.20;1.05;;;15.80;99.90;;;;;;5041591;28;20189;-78
2022/10/26 05:46:04;;;;;;;2.30;1.20;;;15.70;99.90;;;;;;5039780;28;20174;-79
2022/10/26 05:48:29;;;;;;;1.50;0.95;;;15.80;99.90;;;;;;5032955;28;20186;-78
2022/10/26 05:51:01;;;;;;;1.30;1.20;;;15.80;99.90;;;;;;5049504;28;20206;-79
2022/10/26 05:53:29;;;;;;;1.92;1.10;;;15.80;99.90;;;;;;5049216;28;20189;-78
2022/10/26 05:55:58;;;;;;;2.35;1.20;;;15.80;99.90;;;;;;5034449;28;20229;-79
2022/10/26 05:58:24;;;;;;;2.55;1.17;;;15.80;99.90;;;;;;5033277;28;20178;-80
2022/10/26 06:01:10;;;;;;;1.92;1.20;;;15.80;99.90;;;;;;5033069;28;20185;-80
2022/10/26 06:03:54;;;;;;;3.00;1.25;;;15.80;99.90;;;;;;5050209;28;20197;-80
2022/10/26 06:06:21;;;;;;;1.85;1.08;;;15.80;99.90;;;;;;5029704;28;20277;-80
2022/10/26 06:08:50;;;;;;;1.33;1.00;;;15.80;99.90;;;;;;5033555;28;20287;-79
2022/10/26 06:11:15;;;;;;;1.65;0.90;;;15.80;99.90;;;;;;5037550;28;20182;-80
2022/10/26 06:13:41;;;;;;;2.65;1.40;;;15.70;99.90;;;;;;5034213;28;20196;-79
2022/10/26 06:16:30;;;;;;;1.90;1.05;;;15.70;99.90;;;;;;5031744;28;20194;-78
2022/10/26 06:19:15;;;;;;;2.35;1.10;;;15.70;99.90;;;;;;5043669;28;20185;-78
2022/10/26 06:22:03;;;;;;;1.20;0.95;;;15.70;99.90;;;;;;5035276;28;20194;-78
2022/10/26 06:24:47;;;;;;;1.77;1.00;;;15.70;99.90;;;;;;5027049;28;20186;-79
2022/10/26 06:27:25;;;;;;;2.17;1.00;;;15.70;99.90;;;;;;5034664;28;20205;-79
2022/10/26 06:30:05;;;;;;;1.65;0.98;;;15.80;99.90;;;;;;5034521;28;20181;-77
2022/10/26 06:32:32;;;;;;;2.22;1.20;;;15.70;99.90;;;;;;5032811;28;20181;-79
2022/10/26 06:35:18;;;;;;;2.13;1.30;;;15.80;99.90;;;;;;5028638;28;20186;-78
2022/10/26 06:37:47;;;;;;;3.30;1.48;;;15.80;99.90;;;;;;5001601;28;20385;-78
2022/10/26 06:40:15;;;;;;;3.42;1.40;;;15.80;99.90;;;;;;5034176;28;20212;-80
2022/10/26 06:42:41;;;;;;;2.67;1.30;;;15.70;99.90;;;;;;5030914;28;20187;-78
2022/10/26 06:45:13;;;;;;;3.20;1.38;;;15.70;99.90;;;;;;5034427;28;20189;-75
2022/10/26 06:47:42;;;;;;;2.88;1.50;;;15.80;99.90;;;;;;5034988;28;20166;-77
2022/10/26 06:50:36;;;;;;;4.00;1.23;;;15.80;99.90;;;;;;5034349;28;20166;-77
2022/10/26 06:53:18;;;;;;;3.03;1.25;;;15.80;99.90;;;;;;5023156;28;20276;-78
2022/10/26 06:55:46;;;;;;;2.05;1.10;;;15.80;99.90;;;;;;5026245;28;20277;-78
2022/10/26 06:58:18;;;;;;;1.90;1.38;;;15.80;99.90;;;;;;5033940;28;20204;-78
2022/10/26 07:00:46;;;;;;;2.15;1.48;;;15.80;99.90;;;;;;5033408;28;20170;-78
2022/10/26 07:03:14;;;;;;;3.78;1.30;;;15.80;99.90;;;;;;5030058;28;20205;-82
2022/10/26 07:05:40;;;;;;;3.15;1.48;;;15.80;99.90;;;;;;5034914;28;20174;-78
2022/10/26 07:08:06;;;;;;;2.60;1.30;;;15.90;99.90;;;;;;5034510;28;20178;-72
2022/10/26 07:10:33;;;;;;;2.00;1.10;;;15.90;99.90;;;;;;5034126;28;20202;-72
2022/10/26 07:13:06;;;;;;;2.22;1.55;;;15.90;99.90;;;;;;5039845;28;20181;-73
2022/10/26 07:15:35;;;;;;;2.95;1.27;;;15.90;99.90;;;;;;5033148;28;20201;-72
2022/10/26 07:18:05;;;;;;;3.95;1.35;;;16.00;99.90;;;;;;5034238;28;20209;-72
2022/10/26 07:20:31;;;;;;;1.85;1.10;;;16.00;99.90;;;;;;5034254;28;20173;-72
2022/10/26 07:22:59;;;;;;;3.97;1.52;;;16.00;99.90;;;;;;5033370;28;20171;-72
2022/10/26 07:25:25;;;;;;;2.47;1.30;;;16.10;99.90;;;;;;5026998;28;20178;-72
2022/10/26 07:27:53;;;;;;;3.00;1.23;;;16.10;99.90;;;;;;5031473;28;20232;-70
2022/10/26 07:30:18;;;;;;;2.88;1.40;;;16.10;99.90;;;;;;5049266;28;20170;-71
2022/10/26 07:32:49;;;;;;;3.67;1.50;;;16.10;99.90;;;;;;5037683;28;20188;-72
2022/10/26 07:35:15;;;;;;;3.00;1.50;;;16.10;99.90;;;;;;5032984;28;20185;-70
2022/10/26 07:37:42;;;;;;;1.70;1.20;;;16.20;99.90;;;;;;5034051;28;20190;-72
2022/10/26 07:40:08;;;;;;;3.30;1.20;;;16.20;99.90;;;;;;5042097;28;20166;-70
2022/10/26 07:42:36;;;;;;;3.60;1.50;;;16.20;99.90;;;;;;5032988;28;20257;-71
2022/10/26 07:45:02;;;;;;;1.88;1.27;;;16.30;99.90;;;;;;5036115;28;20202;-72
2022/10/26 07:47:30;;;;;;;2.15;1.40;;;16.30;99.90;;;;;;5029527;28;20205;-71
2022/10/26 07:49:58;;;;;;;3.17;1.35;;;16.40;99.90;;;;;;5037783;28;20185;-72
2022/10/26 07:52:26;;;;;;;2.17;1.40;;;16.40;99.90;;;;;;5037847;28;20184;-72
2022/10/26 07:54:51;;;;;;;3.42;1.60;;;16.40;99.90;;;;;;5037307;28;20205;-77
2022/10/26 07:57:19;;;;;;;3.65;1.50;;;16.50;99.90;;;;;;5034201;28;20210;-77
2022/10/26 07:59:45;;;;;;;2.33;1.60;;;16.50;99.90;;;;;;5033794;28;20228;-75
2022/10/26 08:02:10;;;;;;;4.85;1.65;;;16.50;99.90;;;;;;5038042;28;20178;-78
2022/10/26 08:04:36;;;;;;;4.20;1.52;;;16.50;99.90;;;;;;5044761;28;20178;-77
2022/10/26 08:07:02;;;;;;;2.75;1.67;;;16.50;99.90;;;;;;5036806;28;20243;-77
2022/10/26 08:09:27;;;;;;;2.58;1.50;;;16.50;99.90;;;;;;5037543;28;20244;-77
2022/10/26 08:11:53;;;;;;;4.80;1.80;;;16.50;99.90;;;;;;5036392;28;20236;-78
2022/10/26 08:14:20;;;;;;;2.85;1.48;;;16.50;99.90;;;;;;5052032;28;20193;-78
2022/10/26 08:16:51;;;;;;;7.57;1.73;;;16.50;99.90;;;;;;5036063;28;20255;-75
2022/10/26 08:19:17;;;;;;;4.40;1.45;;;16.50;99.90;;;;;;5024684;28;20203;-77
2022/10/26 08:21:43;;;;;;;2.65;1.45;;;16.50;99.90;;;;;;5031204;28;20178;-76
2022/10/26 08:24:11;;;;;;;5.47;1.40;;;16.50;99.90;;;;;;5056371;28;20243;-76
2022/10/26 08:26:39;;;;;;;2.13;1.52;;;16.50;99.90;;;;;;5036477;28;20197;-78
2022/10/26 08:29:07;;;;;;;3.90;1.70;;;16.50;99.90;;;;;;5053146;28;20178;-77
2022/10/26 08:31:35;;;;;;;3.83;1.70;;;16.60;99.90;;;;;;5036799;28;20193;-76
2022/10/26 08:34:00;;;;;;;4.45;1.90;;;16.60;99.90;;;;;;5034453;28;20174;-77
2022/10/26 08:36:29;;;;;;;3.53;1.50;;;16.60;99.90;;;;;;5036414;28;20200;-78
2022/10/26 08:38:55;;;;;;;3.63;1.75;;;16.70;99.90;;;;;;5037833;28;20248;-80
2022/10/26 08:41:44;;;;;;;3.20;1.40;;;16.70;99.90;;;;;;5063196;28;20186;-80
2022/10/26 08:44:18;;;;;;;3.20;1.70;;;16.80;99.90;;;;;;5044872;28;20208;-83
2022/10/26 08:46:48;;;;;;;3.40;1.90;;;16.80;99.90;;;;;;5038270;28;20189;-80
2022/10/26 08:49:24;;;;;;;2.55;1.50;;;16.90;99.90;;;;;;5032927;28;20185;-88
2022/10/26 08:51:53;;;;;;;4.82;1.60;;;17.00;99.90;;;;;;5048710;28;20193;-85
2022/10/26 08:54:28;;;;;;;2.88;1.70;;;17.00;99.90;;;;;;5036957;28;20186;-83
2022/10/26 08:57:01;;;;;;;4.30;1.40;;;17.10;99.90;;;;;;5034988;28;20205;-84
2022/10/26 08:59:39;;;;;;;3.47;1.58;;;17.20;99.90;;;;;;5036567;28;20174;-86
2022/10/26 09:02:15;;;;;;;2.90;1.33;;;17.20;99.90;;;;;;5035164;28;20182;-83
2022/10/26 09:04:41;;;;;;;2.42;1.50;;;17.30;99.90;;;;;;5042757;28;20173;-87
2022/10/26 09:07:10;;;;;;;3.05;1.60;;;17.30;99.90;;;;;;5048615;28;20202;-88
2022/10/26 09:10:02;;;;;;;2.38;1.60;;;17.40;99.90;;;;;;5036614;28;20201;-86
2022/10/26 09:12:52;;;;;;;2.45;1.67;;;17.40;99.90;;;;;;5051278;28;20177;-73
2022/10/26 09:15:56;;;;;;;2.97;1.70;;;17.50;99.90;;;;;;5038913;28;20247;-83
2022/10/26 09:18:54;;;;;;;4.03;1.90;;;17.50;99.90;;;;;;5028927;28;20198;-83
2022/10/26 09:21:28;;;;;;;3.97;1.70;;;17.60;99.90;;;;;;5035021;28;20206;-86
2022/10/26 09:24:15;;;;;;;3.10;1.60;;;17.60;99.90;;;;;;5033014;28;20204;-80
2022/10/26 09:26:41;;;;;;;3.80;1.42;;;17.60;99.90;;;;;;5037206;28;20189;-83
2022/10/26 09:29:12;;;;;;;3.25;1.60;;;17.70;99.90;;;;;;5036283;28;20216;-85
2022/10/26 09:31:45;;;;;;;2.00;1.40;;;17.80;99.90;;;;;;5031127;28;20183;-82
2022/10/26 09:34:27;;;;;;;5.13;1.67;;;18.00;99.90;;;;;;5030891;28;20186;-85
2022/10/26 09:36:55;;;;;;;4.75;2.17;;;18.20;99.90;;;;;;5035263;28;20193;-85
2022/10/26 09:39:52;;;;;;;2.65;1.92;;;18.20;99.90;;;;;;5040751;28;20200;-81
2022/10/26 09:42:26;;;;;;;3.33;1.70;;;18.30;99.90;;;;;;5029526;28;20206;-82
2022/10/26 09:44:58;;;;;;;3.85;1.48;;;18.50;99.90;;;;;;5035579;28;20210;-82
2022/10/26 09:47:36;;;;;;;1.98;1.30;;;18.90;99.90;;;;;;5036496;28;20300;-71
2022/10/26 09:50:14;;;;;;;2.33;1.42;;;19.50;99.90;;;;;;5032882;28;20186;-72
2022/10/26 09:52:43;;;;;;;3.45;1.48;;;20.00;99.90;;;;;;5042530;28;20221;-72
2022/10/26 09:55:13;;;;;;;3.13;1.50;;;20.20;99.90;;;;;;5024044;28;20171;-73
2022/10/26 09:57:43;;;;;;;2.13;1.30;;;20.30;99.90;;;;;;5034889;28;20224;-71
2022/10/26 10:00:18;;;;;;;1.75;1.20;;;20.30;99.90;;;;;;5026626;28;20186;-73
2022/10/26 10:02:53;;;;;;;1.90;1.35;;;20.60;99.90;;;;;;5034845;28;20288;-71
2022/10/26 10:05:33;;;;;;;2.05;1.30;;;20.90;99.90;;;;;;5031435;28;20235;-72
2022/10/26 10:08:16;;;;;;;2.83;1.60;;;21.30;99.90;;;;;;5031369;28;20247;-72
2022/10/26 10:11:08;;;;;;;2.67;1.50;;;21.70;99.90;;;;;;5031158;28;20221;-74
2022/10/26 10:13:47;;;;;;;3.33;1.63;;;22.00;99.90;;;;;;5036672;28;20250;-73
2022/10/26 10:16:23;;;;;;;1.95;1.33;;;22.20;99.90;;;;;;5047700;28;20239;-73
2022/10/26 10:18:58;;;;;;;3.22;1.52;;;22.30;99.90;;;;;;5040961;28;20265;-72
2022/10/26 10:21:47;;;;;;;4.13;1.35;;;22.30;99.90;;;;;;5030915;28;20188;-73
2022/10/26 10:24:51;;;;;;;3.45;1.15;;;22.40;99.90;;;;;;5028473;28;20174;-76
2022/10/26 10:27:20;;;;;;;2.88;1.40;;;22.60;99.90;;;;;;5018284;28;20214;-75
2022/10/26 10:29:50;;;;;;;4.05;1.50;;;22.80;99.90;;;;;;5035858;28;20178;-75
2022/10/26 10:32:22;;;;;;;2.90;1.30;;;23.00;99.90;;;;;;5033252;28;20238;-74
2022/10/26 10:34:56;;;;;;;4.47;1.30;;;23.20;99.90;;;;;;5048084;28;20176;-74
2022/10/26 10:37:29;;;;;;;3.25;1.35;;;23.30;99.90;;;;;;5028694;28;20194;-74
2022/10/26 10:40:00;;;;;;;2.78;1.23;;;23.40;99.90;;;;;;5027297;28;20195;-75
2022/10/26 10:42:35;;;;;;;3.28;1.40;;;23.50;99.90;;;;;;5034633;28;20444;-76
2022/10/26 10:45:20;;;;;;;2.95;1.17;;;23.60;99.90;;;;;;5030210;28;20240;-75
2022/10/26 10:47:58;;;;;;;3.78;1.50;;;23.60;99.90;;;;;;5036864;28;20174;-77
2022/10/26 10:50:24;;;;;;;4.32;1.20;;;23.60;99.90;;;;;;5059560;28;20185;-77
2022/10/26 10:52:51;;;;;;;2.47;1.10;;;23.60;99.90;;;;;;5038108;28;20202;-77
2022/10/26 10:55:22;;;;;;;2.85;1.10;;;23.60;99.90;;;;;;5052095;28;20249;-72
2022/10/26 10:58:03;;;;;;;4.07;1.30;;;23.50;99.90;;;;;;5044403;28;20199;-75
2022/10/26 11:00:34;;;;;;;2.33;1.15;;;23.50;99.90;;;;;;5033704;28;20166;-71
2022/10/26 11:03:24;;;;;;;2.83;1.17;;;23.40;99.90;;;;;;5043930;28;20171;-72
2022/10/26 11:06:03;;;;;;;3.13;1.20;;;23.40;99.90;;;;;;5024625;28;20174;-73
2022/10/26 11:08:49;;;;;;;3.10;1.30;;;23.40;99.90;;;;;;5026817;28;20179;-73
2022/10/26 11:11:20;;;;;;;2.60;1.30;;;23.40;99.90;;;;;;5032576;28;20383;-72
2022/10/26 11:14:04;;;;;;;2.75;1.00;;;23.40;99.90;;;;;;5033351;28;20174;-72
2022/10/26 11:16:34;;;;;;;2.92;1.20;;;23.50;99.90;;;;;;5033346;28;20202;-73
2022/10/26 11:19:15;;;;;;;3.53;1.20;;;23.50;99.90;;;;;;5030891;28;20191;-71
2022/10/26 11:21:44;;;;;;;3.22;1.00;;;23.50;99.90;;;;;;5026754;28;20268;-70
2022/10/26 11:24:23;;;;;;;1.52;1.00;;;23.50;99.90;;;;;;5063976;28;20219;-73
2022/10/26 11:27:00;;;;;;;4.07;1.27;;;23.40;99.90;;;;;;5041292;28;20225;-74
2022/10/26 11:29:52;;;;;;;1.63;0.80;;;23.40;99.90;;;;;;5040326;28;20196;-73
2022/10/26 11:32:22;;;;;;;4.97;1.00;;;23.30;99.90;;;;;;5040738;28;20236;-75
2022/10/26 11:35:00;;;;;;;2.17;1.00;;;23.20;99.90;;;;;;5037644;28;20229;-74
2022/10/26 11:37:36;;;;;;;2.38;1.15;;;23.10;99.90;;;;;;5034968;28;20205;-74
2022/10/26 11:40:23;;;;;;;2.35;1.17;;;23.10;99.90;;;;;;5032000;28;20200;-73
2022/10/26 11:43:00;;;;;;;3.78;0.90;;;23.00;99.90;;;;;;5020281;28;20205;-74
2022/10/26 11:45:43;;;;;;;1.50;0.75;;;22.90;99.90;;;;;;5036630;28;20170;-73
2022/10/26 11:48:38;;;;;;;3.55;0.75;;;22.80;99.90;;;;;;5031616;28;20174;-73
2022/10/26 11:51:08;;;;;;;2.00;0.80;;;22.80;99.90;;;;;;5021714;28;20186;-75
2022/10/26 11:53:41;;;;;;;3.08;1.00;;;22.90;99.90;;;;;;5051010;28;20269;-74
2022/10/26 11:56:20;;;;;;;1.25;0.80;;;23.00;99.90;;;;;;5033160;28;20202;-77
2022/10/26 11:58:46;;;;;;;2.45;0.80;;;23.20;99.90;;;;;;5027599;28;20186;-74
2022/10/26 12:01:14;;;;;;;1.23;0.73;;;23.40;99.90;;;;;;5036942;28;20169;-73
2022/10/26 12:03:49;;;;;;;2.78;0.90;;;23.50;99.90;;;;;;5051051;28;20202;-75
2022/10/26 12:06:19;;;;;;;2.45;0.90;;;23.60;99.90;;;;;;5034014;28;20182;-72
2022/10/26 12:09:15;;;;;;;1.90;0.90;;;23.70;99.90;;;;;;5038229;28;20193;-72
2022/10/26 12:12:05;;;;;;;2.00;1.10;;;23.90;99.90;;;;;;5039333;28;20197;-74
2022/10/26 12:14:38;;;;;;;1.67;0.90;;;24.00;99.90;;;;;;5035540;28;20179;-75
2022/10/26 12:17:13;;;;;;;2.45;0.80;;;24.10;99.90;;;;;;5036528;28;20205;-74
2022/10/26 12:19:54;;;;;;;2.75;0.88;;;24.30;99.90;;;;;;5036896;28;20169;-77
2022/10/26 12:22:27;;;;;;;1.00;0.80;;;24.50;99.90;;;;;;5038652;28;20198;-75
2022/10/26 12:25:16;;;;;;;2.58;1.17;;;24.60;99.90;;;;;;5037861;28;20238;-73
2022/10/26 12:27:42;;;;;;;1.17;0.70;;;24.60;99.90;;;;;;5035085;28;20198;-74
2022/10/26 12:30:13;;;;;;;2.10;0.80;;;24.60;99.90;;;;;;5034908;28;20460;-74
2022/10/26 12:32:45;;;;;;;1.65;0.88;;;24.50;99.90;;;;;;5037487;28;20182;-74
2022/10/26 12:35:46;;;;;;;2.15;0.80;;;24.50;99.90;;;;;;5036990;28;20197;-76
2022/10/26 12:38:23;;;;;;;2.78;0.90;;;24.40;99.90;;;;;;4979200;28;20217;-75
2022/10/26 12:41:20;;;;;;;3.30;1.05;;;24.30;99.90;;;;;;5023679;28;20192;-76
2022/10/26 12:43:46;;;;;;;1.52;0.80;;;24.10;99.90;;;;;;5025789;28;20185;-73
2022/10/26 12:46:11;;;;;;;1.65;0.80;;;24.10;99.90;;;;;;5036035;28;20172;-74
2022/10/26 12:48:50;;;;;;;1.10;0.70;;;24.00;99.90;;;;;;5036642;28;20194;-75
2022/10/26 12:51:23;;;;;;;1.10;0.73;;;24.00;99.90;;;;;;5035421;28;20178;-75
2022/10/26 12:54:09;;;;;;;1.75;0.73;;;24.00;99.90;;;;;;5033987;28;20266;-74
2022/10/26 12:56:40;;;;;;;0.90;0.80;;;24.00;99.90;;;;;;5019658;28;20212;-74
2022/10/26 12:59:27;;;;;;;2.10;1.00;;;24.00;99.90;;;;;;5044851;28;20313;-75
2022/10/26 13:02:02;;;;;;;1.02;0.65;;;24.10;99.90;;;;;;5033883;28;20263;-73
2022/10/26 13:05:00;;;;;;;2.50;0.80;;;24.20;99.90;;;;;;5040446;28;20264;-74
2022/10/26 13:07:35;;;;;;;1.52;0.80;;;24.40;99.90;;;;;;5035281;28;20243;-73
2022/10/26 13:10:24;;;;;;;2.08;1.00;;;24.50;99.90;;;;;;5045494;28;20178;-75
2022/10/26 13:13:01;;;;;;;0.68;0.50;;;24.60;99.90;;;;;;5033606;28;20322;-74
2022/10/26 13:15:54;;;;;;;1.02;0.75;;;24.70;99.90;;;;;;5041636;28;20228;-75